createdAt,value
2019-03-21T00:00:34.947Z,15.00
2019-03-21T00:01:34.921Z,10.50
2019-03-21T00:02:34.814Z,10.70
2019-03-21T00:03:34.740Z,11.80
2019-03-21T00:04:34.672Z,11.00
2019-03-21T00:05:34.604Z,11.00
2019-03-21T00:06:34.536Z,9.80
2019-03-21T00:07:34.470Z,10.90
2019-03-21T00:08:34.398Z,12.30
2019-03-21T00:09:34.330Z,9.90
2019-03-21T00:10:34.261Z,10.50
2019-03-21T00:11:34.191Z,10.20
2019-03-21T00:12:34.124Z,11.80
2019-03-21T00:13:34.053Z,12.60
2019-03-21T00:14:34.011Z,11.50
2019-03-21T00:15:33.916Z,11.80
2019-03-21T00:16:33.849Z,16.00
2019-03-21T00:17:33.781Z,11.40
2019-03-21T00:18:33.710Z,12.20
2019-03-21T00:19:33.642Z,8.50
2019-03-21T00:20:33.576Z,11.70
2019-03-21T00:21:33.507Z,15.00
2019-03-21T00:22:33.436Z,10.70
2019-03-21T00:23:33.366Z,8.00
2019-03-21T00:24:33.299Z,9.80
2019-03-21T00:25:33.229Z,7.30
2019-03-21T00:26:33.161Z,10.30
2019-03-21T00:27:33.095Z,11.90
2019-03-21T00:28:33.023Z,11.70
2019-03-21T00:29:32.956Z,9.40
2019-03-21T00:30:32.886Z,9.80
2019-03-21T00:31:32.816Z,11.50
2019-03-21T00:32:32.750Z,6.80
2019-03-21T00:33:32.682Z,8.60
2019-03-21T00:34:32.611Z,9.60
2019-03-21T00:35:32.541Z,9.40
2019-03-21T00:36:32.474Z,10.60
2019-03-21T00:37:32.407Z,11.50
2019-03-21T00:38:32.337Z,13.30
2019-03-21T00:39:33.150Z,9.80
2019-03-21T00:40:32.198Z,8.50
2019-03-21T00:41:32.129Z,12.10
2019-03-21T00:42:32.058Z,14.70
2019-03-21T00:43:31.992Z,7.80
2019-03-21T00:44:31.923Z,10.00
2019-03-21T00:45:31.854Z,11.20
2019-03-21T00:46:31.786Z,10.30
2019-03-21T00:47:31.719Z,10.10
2019-03-21T00:48:31.647Z,7.00
2019-03-21T00:49:31.579Z,9.80
2019-03-21T00:50:31.510Z,11.70
2019-03-21T00:51:31.439Z,10.20
2019-03-21T00:52:31.371Z,13.40
2019-03-21T00:53:31.303Z,11.80
2019-03-21T00:54:31.236Z,12.40
2019-03-21T00:55:31.165Z,13.90
2019-03-21T00:56:31.100Z,11.90
2019-03-21T00:57:31.028Z,10.20
2019-03-21T00:58:30.959Z,13.50
2019-03-21T00:59:30.888Z,9.90
2019-03-21T01:00:30.821Z,9.30
2019-03-21T01:01:30.754Z,10.20
2019-03-21T01:02:30.682Z,10.20
2019-03-21T01:03:30.616Z,11.20
2019-03-21T01:04:30.544Z,11.70
2019-03-21T01:05:30.477Z,9.80
2019-03-21T01:06:30.408Z,9.00
2019-03-21T01:07:30.339Z,9.80
2019-03-21T01:08:30.269Z,11.30
2019-03-21T01:09:30.204Z,9.50
2019-03-21T01:10:30.133Z,9.50
2019-03-21T01:11:30.062Z,13.90
2019-03-21T01:12:29.994Z,9.50
2019-03-21T01:13:29.924Z,9.90
2019-03-21T01:14:30.268Z,10.20
2019-03-21T01:15:29.814Z,10.30
2019-03-21T01:16:29.717Z,10.70
2019-03-21T01:17:29.656Z,11.20
2019-03-21T01:18:29.577Z,10.20
2019-03-21T01:19:29.509Z,8.90
2019-03-21T01:20:29.446Z,9.60
2019-03-21T01:21:29.379Z,8.20
2019-03-21T01:22:29.303Z,8.70
2019-03-21T01:23:29.233Z,9.30
2019-03-21T01:24:29.165Z,11.40
2019-03-21T01:25:29.099Z,8.50
2019-03-21T01:26:29.037Z,6.10
2019-03-21T01:27:28.957Z,7.60
2019-03-21T01:28:28.890Z,9.00
2019-03-21T01:29:28.822Z,10.80
2019-03-21T01:30:28.750Z,7.30
2019-03-21T01:31:28.681Z,8.40
2019-03-21T01:32:28.631Z,10.50
2019-03-21T01:33:28.544Z,11.00
2019-03-21T01:34:28.475Z,6.60
2019-03-21T01:35:28.406Z,10.00
2019-03-21T01:36:28.336Z,9.30
2019-03-21T01:37:28.268Z,7.80
2019-03-21T01:38:28.197Z,11.40
2019-03-21T01:39:28.132Z,11.00
2019-03-21T01:40:28.059Z,8.00
2019-03-21T01:41:27.991Z,8.10
2019-03-21T01:42:27.922Z,8.60
2019-03-21T01:43:27.853Z,7.20
2019-03-21T01:44:27.788Z,8.20
2019-03-21T01:45:27.714Z,6.40
2019-03-21T01:46:27.644Z,8.00
2019-03-21T01:47:27.575Z,7.30
2019-03-21T01:48:27.507Z,8.90
2019-03-21T01:49:27.443Z,9.30
2019-03-21T01:50:27.368Z,6.40
2019-03-21T01:51:27.300Z,8.60
2019-03-21T01:52:27.231Z,6.10
2019-03-21T01:53:27.163Z,5.50
2019-03-21T01:54:27.093Z,7.50
2019-03-21T01:55:27.020Z,7.10
2019-03-21T01:56:26.954Z,10.30
2019-03-21T01:57:26.887Z,8.20
2019-03-21T01:58:26.818Z,9.90
2019-03-21T01:59:26.747Z,6.60
2019-03-21T02:00:26.677Z,9.90
2019-03-21T02:01:26.609Z,6.70
2019-03-21T02:02:26.539Z,7.30
2019-03-21T02:03:26.471Z,8.20
2019-03-21T02:04:26.402Z,8.50
2019-03-21T02:05:26.332Z,6.70
2019-03-21T02:06:26.265Z,7.90
2019-03-21T02:07:26.193Z,8.10
2019-03-21T02:08:26.124Z,7.40
2019-03-21T02:09:26.060Z,9.30
2019-03-21T02:10:26.008Z,7.80
2019-03-21T02:11:25.919Z,7.70
2019-03-21T02:12:25.848Z,6.30
2019-03-21T02:13:25.777Z,6.10
2019-03-21T02:14:25.707Z,10.40
2019-03-21T02:15:25.640Z,8.70
2019-03-21T02:16:25.572Z,4.90
2019-03-21T02:17:25.505Z,5.20
2019-03-21T02:18:25.430Z,7.30
2019-03-21T02:19:25.364Z,6.50
2019-03-21T02:20:25.294Z,6.50
2019-03-21T02:21:25.225Z,9.30
2019-03-21T02:22:25.153Z,5.90
2019-03-21T02:23:25.085Z,9.10
2019-03-21T02:24:25.017Z,9.30
2019-03-21T02:25:24.948Z,8.40
2019-03-21T02:26:24.877Z,7.70
2019-03-21T02:27:24.809Z,4.60
2019-03-21T02:28:24.740Z,9.40
2019-03-21T02:29:24.670Z,7.30
2019-03-21T02:30:24.607Z,6.80
2019-03-21T02:31:24.532Z,7.80
2019-03-21T02:32:24.463Z,7.40
2019-03-21T02:33:24.390Z,7.90
2019-03-21T02:34:24.322Z,9.50
2019-03-21T02:35:24.270Z,9.10
2019-03-21T02:36:24.199Z,5.60
2019-03-21T02:37:24.116Z,6.90
2019-03-21T02:38:24.045Z,6.90
2019-03-21T02:39:23.976Z,6.70
2019-03-21T02:40:23.908Z,7.40
2019-03-21T02:41:25.536Z,7.20
2019-03-21T02:42:23.771Z,11.10
2019-03-21T02:43:23.700Z,8.80
2019-03-21T02:44:23.628Z,7.10
2019-03-21T02:45:23.563Z,8.20
2019-03-21T02:46:23.491Z,8.00
2019-03-21T02:47:23.421Z,7.80
2019-03-21T02:48:23.353Z,6.30
2019-03-21T02:49:23.283Z,7.20
2019-03-21T02:50:23.215Z,7.50
2019-03-21T02:51:23.144Z,8.20
2019-03-21T02:52:23.075Z,5.70
2019-03-21T02:53:23.008Z,7.70
2019-03-21T02:54:22.937Z,9.10
2019-03-21T02:55:22.867Z,7.80
2019-03-21T02:56:22.798Z,8.20
2019-03-21T02:57:22.730Z,7.60
2019-03-21T02:58:22.707Z,7.00
2019-03-21T02:59:22.591Z,7.00
2019-03-21T03:00:22.525Z,7.60
2019-03-21T03:01:22.465Z,8.80
2019-03-21T03:02:22.383Z,9.70
2019-03-21T03:03:22.311Z,6.00
2019-03-21T03:04:22.246Z,6.90
2019-03-21T03:05:22.174Z,7.30
2019-03-21T03:06:22.106Z,5.40
2019-03-21T03:07:22.035Z,6.70
2019-03-21T03:08:21.969Z,8.10
2019-03-21T03:09:21.896Z,7.10
2019-03-21T03:10:21.830Z,7.70
2019-03-21T03:11:21.771Z,8.80
2019-03-21T03:12:21.691Z,5.90
2019-03-21T03:13:21.622Z,7.60
2019-03-21T03:14:21.550Z,6.80
2019-03-21T03:15:23.444Z,5.70
2019-03-21T03:16:21.417Z,5.70
2019-03-21T03:17:21.343Z,6.90
2019-03-21T03:18:21.282Z,7.90
2019-03-21T03:19:21.234Z,6.10
2019-03-21T03:20:21.131Z,6.90
2019-03-21T03:21:21.065Z,6.00
2019-03-21T03:22:20.997Z,8.20
2019-03-21T03:23:20.921Z,7.80
2019-03-21T03:24:20.858Z,6.20
2019-03-21T03:25:20.787Z,8.20
2019-03-21T03:26:20.721Z,6.90
2019-03-21T03:27:20.649Z,8.30
2019-03-21T03:28:20.583Z,8.20
2019-03-21T03:29:20.513Z,7.30
2019-03-21T03:30:20.440Z,7.70
2019-03-21T03:31:20.373Z,7.50
2019-03-21T03:32:20.305Z,6.00
2019-03-21T03:33:20.232Z,11.20
2019-03-21T03:34:20.162Z,6.10
2019-03-21T03:35:20.092Z,9.10
2019-03-21T03:36:20.024Z,8.10
2019-03-21T03:37:19.958Z,6.30
2019-03-21T03:38:19.887Z,8.40
2019-03-21T03:39:19.813Z,6.00
2019-03-21T03:40:19.746Z,7.40
2019-03-21T03:41:19.677Z,7.30
2019-03-21T03:42:19.605Z,7.40
2019-03-21T03:43:19.539Z,5.80
2019-03-21T03:44:19.470Z,6.90
2019-03-21T03:45:19.407Z,6.70
2019-03-21T03:46:19.328Z,7.90
2019-03-21T03:47:19.259Z,6.20
2019-03-21T03:48:20.041Z,7.80
2019-03-21T03:49:19.121Z,7.80
2019-03-21T03:50:19.052Z,8.60
2019-03-21T03:51:18.979Z,7.40
2019-03-21T03:52:18.912Z,9.50
2019-03-21T03:53:18.842Z,5.80
2019-03-21T03:54:18.779Z,7.30
2019-03-21T03:55:18.717Z,10.60
2019-03-21T03:56:18.643Z,6.30
2019-03-21T03:57:18.565Z,7.10
2019-03-21T03:58:18.555Z,9.00
2019-03-21T03:59:18.429Z,8.30
2019-03-21T04:00:18.365Z,7.30
2019-03-21T04:01:18.287Z,9.30
2019-03-21T04:02:18.216Z,6.40
2019-03-21T04:03:18.147Z,8.90
2019-03-21T04:04:18.079Z,8.40
2019-03-21T04:05:18.011Z,7.70
2019-03-21T04:06:17.937Z,8.80
2019-03-21T04:07:17.869Z,8.00
2019-03-21T04:08:17.801Z,7.90
2019-03-21T04:09:17.732Z,7.60
2019-03-21T04:10:17.661Z,6.40
2019-03-21T04:11:17.592Z,7.60
2019-03-21T04:12:17.523Z,6.40
2019-03-21T04:13:17.460Z,9.30
2019-03-21T04:14:17.382Z,6.30
2019-03-21T04:15:17.314Z,10.70
2019-03-21T04:16:17.243Z,8.20
2019-03-21T04:17:17.174Z,8.20
2019-03-21T04:18:17.106Z,7.50
2019-03-21T04:19:17.036Z,6.90
2019-03-21T04:20:16.967Z,9.30
2019-03-21T04:21:16.894Z,9.60
2019-03-21T04:22:16.827Z,6.80
2019-03-21T04:23:16.755Z,6.50
2019-03-21T04:24:16.713Z,10.30
2019-03-21T04:25:16.630Z,9.90
2019-03-21T04:26:16.549Z,9.00
2019-03-21T04:27:16.478Z,9.00
2019-03-21T04:28:16.411Z,9.50
2019-03-21T04:29:16.338Z,6.60
2019-03-21T04:30:16.274Z,9.40
2019-03-21T04:31:16.200Z,9.90
2019-03-21T04:32:16.134Z,7.90
2019-03-21T04:33:16.070Z,9.40
2019-03-21T04:34:15.993Z,7.30
2019-03-21T04:35:15.922Z,7.40
2019-03-21T04:36:15.853Z,6.70
2019-03-21T04:37:15.784Z,7.90
2019-03-21T04:38:15.729Z,5.70
2019-03-21T04:39:15.644Z,5.20
2019-03-21T04:40:15.574Z,12.10
2019-03-21T04:41:15.506Z,7.00
2019-03-21T04:42:15.434Z,8.40
2019-03-21T04:43:15.367Z,6.10
2019-03-21T04:44:15.299Z,6.30
2019-03-21T04:45:15.230Z,6.90
2019-03-21T04:46:15.155Z,10.00
2019-03-21T04:47:15.087Z,7.60
2019-03-21T04:48:15.017Z,7.20
2019-03-21T04:49:14.950Z,7.60
2019-03-21T04:50:14.881Z,6.70
2019-03-21T04:51:14.807Z,6.70
2019-03-21T04:52:14.737Z,7.50
2019-03-21T04:53:14.670Z,9.80
2019-03-21T04:54:14.602Z,7.30
2019-03-21T04:55:14.531Z,6.30
2019-03-21T04:56:14.478Z,6.30
2019-03-21T04:57:14.402Z,8.20
2019-03-21T04:58:14.321Z,7.10
2019-03-21T04:59:14.252Z,5.70
2019-03-21T05:00:14.180Z,7.00
2019-03-21T05:01:14.112Z,6.70
2019-03-21T05:02:14.041Z,7.30
2019-03-21T05:03:13.974Z,7.00
2019-03-21T05:04:13.903Z,7.40
2019-03-21T05:05:13.830Z,5.30
2019-03-21T05:06:13.787Z,8.60
2019-03-21T05:07:13.696Z,12.50
2019-03-21T05:08:13.623Z,8.10
2019-03-21T05:09:13.553Z,11.00
2019-03-21T05:10:13.483Z,6.50
2019-03-21T05:11:13.414Z,7.70
2019-03-21T05:12:13.344Z,7.60
2019-03-21T05:13:13.274Z,7.90
2019-03-21T05:14:13.205Z,8.30
2019-03-21T05:15:13.144Z,7.10
2019-03-21T05:16:14.897Z,6.90
2019-03-21T05:17:12.994Z,9.00
2019-03-21T05:18:12.924Z,13.30
2019-03-21T05:19:12.855Z,12.00
2019-03-21T05:20:14.385Z,8.70
2019-03-21T05:21:12.716Z,11.40
2019-03-21T05:22:12.645Z,9.80
2019-03-21T05:23:12.576Z,11.40
2019-03-21T05:24:12.509Z,15.10
2019-03-21T05:25:12.439Z,13.90
2019-03-21T05:26:12.369Z,13.70
2019-03-21T05:27:12.297Z,14.00
2019-03-21T05:28:12.229Z,15.90
2019-03-21T05:29:12.158Z,15.50
2019-03-21T05:30:12.089Z,12.20
2019-03-21T05:31:12.018Z,11.70
2019-03-21T05:32:11.951Z,13.50
2019-03-21T05:33:11.881Z,10.30
2019-03-21T05:34:11.810Z,8.60
2019-03-21T05:35:11.740Z,8.90
2019-03-21T05:36:11.671Z,10.10
2019-03-21T05:37:11.602Z,8.30
2019-03-21T05:38:11.531Z,10.90
2019-03-21T05:39:11.459Z,8.30
2019-03-21T05:40:11.392Z,9.20
2019-03-21T05:41:11.322Z,8.90
2019-03-21T05:42:11.251Z,7.90
2019-03-21T05:43:11.185Z,8.30
2019-03-21T05:44:11.114Z,7.50
2019-03-21T05:45:11.045Z,10.20
2019-03-21T05:46:10.974Z,7.50
2019-03-21T05:47:10.904Z,8.30
2019-03-21T05:48:10.833Z,11.00
2019-03-21T05:49:10.766Z,7.00
2019-03-21T05:50:10.693Z,10.00
2019-03-21T05:51:10.630Z,9.80
2019-03-21T05:52:10.556Z,9.10
2019-03-21T05:53:10.486Z,8.50
2019-03-21T05:54:10.413Z,7.70
2019-03-21T05:55:10.346Z,7.10
2019-03-21T05:56:10.276Z,8.40
2019-03-21T05:57:10.207Z,6.20
2019-03-21T05:58:10.137Z,8.30
2019-03-21T05:59:10.069Z,8.70
2019-03-21T06:00:10.000Z,5.00
2019-03-21T06:01:09.930Z,9.10
2019-03-21T06:02:09.859Z,7.80
2019-03-21T06:03:09.789Z,7.40
2019-03-21T06:04:09.731Z,7.50
2019-03-21T06:05:09.652Z,7.60
2019-03-21T06:06:09.580Z,8.60
2019-03-21T06:07:09.516Z,8.30
2019-03-21T06:08:09.441Z,9.50
2019-03-21T06:09:09.375Z,15.90
2019-03-21T06:10:09.305Z,9.30
2019-03-21T06:11:09.231Z,8.20
2019-03-21T06:12:09.164Z,10.00
2019-03-21T06:13:09.094Z,6.70
2019-03-21T06:14:09.024Z,9.00
2019-03-21T06:15:08.955Z,7.00
2019-03-21T06:16:08.884Z,8.40
2019-03-21T06:17:08.816Z,6.90
2019-03-21T06:18:08.749Z,6.90
2019-03-21T06:19:08.675Z,8.80
2019-03-21T06:20:08.611Z,7.40
2019-03-21T06:21:08.538Z,7.30
2019-03-21T06:22:08.468Z,8.70
2019-03-21T06:23:08.399Z,8.90
2019-03-21T06:24:08.327Z,9.20
2019-03-21T06:25:08.272Z,6.30
2019-03-21T06:26:08.194Z,6.80
2019-03-21T06:27:14.365Z,7.80
2019-03-21T06:28:08.053Z,6.90
2019-03-21T06:29:07.991Z,8.10
2019-03-21T06:30:07.915Z,6.00
2019-03-21T06:31:07.844Z,7.90
2019-03-21T06:32:07.779Z,9.40
2019-03-21T06:33:07.707Z,8.00
2019-03-21T06:34:07.639Z,9.20
2019-03-21T06:35:07.567Z,7.90
2019-03-21T06:36:07.503Z,10.10
2019-03-21T06:37:07.429Z,7.00
2019-03-21T06:38:07.358Z,9.70
2019-03-21T06:39:07.287Z,12.10
2019-03-21T06:40:07.223Z,9.40
2019-03-21T06:41:07.213Z,9.70
2019-03-21T06:42:07.084Z,9.70
2019-03-21T06:43:07.015Z,8.30
2019-03-21T06:44:06.947Z,10.60
2019-03-21T06:45:06.882Z,9.30
2019-03-21T06:46:06.806Z,9.20
2019-03-21T06:47:06.738Z,6.40
2019-03-21T06:48:06.670Z,10.70
2019-03-21T06:49:06.602Z,7.20
2019-03-21T06:50:06.532Z,10.80
2019-03-21T06:51:06.464Z,7.30
2019-03-21T06:52:06.395Z,7.20
2019-03-21T06:53:06.327Z,9.00
2019-03-21T06:54:06.256Z,7.90
2019-03-21T06:55:06.187Z,8.10
2019-03-21T06:56:06.118Z,6.80
2019-03-21T06:57:06.051Z,12.10
2019-03-21T06:58:05.989Z,8.60
2019-03-21T06:59:05.911Z,9.30
2019-03-21T07:00:05.853Z,9.60
2019-03-21T07:01:05.812Z,7.70
2019-03-21T07:02:05.708Z,6.30
2019-03-21T07:03:05.638Z,7.50
2019-03-21T07:04:07.446Z,6.80
2019-03-21T07:05:05.501Z,7.30
2019-03-21T07:06:05.433Z,9.30
2019-03-21T07:07:08.451Z,7.90
2019-03-21T07:08:05.296Z,7.70
2019-03-21T07:09:05.226Z,5.00
2019-03-21T07:10:05.158Z,6.90
2019-03-21T07:11:05.088Z,7.20
2019-03-21T07:12:05.019Z,6.60
2019-03-21T07:13:04.955Z,8.20
2019-03-21T07:14:04.883Z,6.20
2019-03-21T07:15:04.822Z,6.60
2019-03-21T07:16:04.748Z,5.30
2019-03-21T07:17:04.681Z,6.50
2019-03-21T07:18:04.613Z,7.40
2019-03-21T07:19:04.541Z,5.80
2019-03-21T07:20:04.475Z,6.60
2019-03-21T07:21:04.407Z,9.70
2019-03-21T07:22:04.338Z,5.60
2019-03-21T07:23:04.270Z,4.40
2019-03-21T07:24:04.201Z,7.40
2019-03-21T07:25:04.136Z,6.10
2019-03-21T07:26:06.579Z,5.90
2019-03-21T07:27:03.995Z,4.70
2019-03-21T07:28:03.931Z,4.70
2019-03-21T07:29:03.861Z,7.40
2019-03-21T07:30:03.793Z,5.70
2019-03-21T07:31:03.737Z,7.30
2019-03-21T07:32:03.657Z,5.30
2019-03-21T07:33:03.585Z,7.20
2019-03-21T07:34:03.530Z,6.20
2019-03-21T07:35:03.471Z,6.70
2019-03-21T07:36:03.390Z,5.20
2019-03-21T07:37:03.317Z,6.70
2019-03-21T07:38:03.254Z,7.60
2019-03-21T07:39:03.182Z,5.30
2019-03-21T07:40:03.138Z,6.60
2019-03-21T07:41:03.046Z,4.80
2019-03-21T07:42:02.975Z,6.50
2019-03-21T07:43:02.961Z,5.80
2019-03-21T07:44:02.849Z,5.50
2019-03-21T07:45:02.783Z,5.30
2019-03-21T07:46:02.706Z,5.40
2019-03-21T07:47:12.270Z,6.70
2019-03-21T07:48:05.104Z,5.90
2019-03-21T07:49:02.501Z,6.80
2019-03-21T07:50:02.433Z,5.80
2019-03-21T07:51:02.369Z,5.10
2019-03-21T07:52:02.299Z,7.10
2019-03-21T07:53:02.232Z,5.40
2019-03-21T07:54:02.163Z,3.50
2019-03-21T07:55:02.101Z,5.30
2019-03-21T07:56:02.031Z,5.70
2019-03-21T07:57:01.962Z,4.40
2019-03-21T07:58:01.914Z,4.30
2019-03-21T07:59:01.826Z,5.80
2019-03-21T08:00:01.764Z,4.50
2019-03-21T08:01:01.692Z,4.00
2019-03-21T08:02:01.629Z,3.80
2019-03-21T08:03:01.558Z,4.00
2019-03-21T08:04:02.968Z,3.70
2019-03-21T08:05:01.420Z,4.80
2019-03-21T08:06:01.352Z,3.70
2019-03-21T08:07:01.287Z,9.80
2019-03-21T08:08:01.220Z,5.50
2019-03-21T08:09:01.152Z,8.10
2019-03-21T08:10:01.084Z,3.80
2019-03-21T08:11:01.018Z,3.80
2019-03-21T08:12:00.949Z,10.70
2019-03-21T08:13:00.887Z,8.00
2019-03-21T08:14:00.828Z,2.90
2019-03-21T08:15:00.750Z,4.80
2019-03-21T08:16:00.680Z,3.10
2019-03-21T08:17:00.614Z,5.80
2019-03-21T08:18:00.550Z,3.40
2019-03-21T08:19:00.481Z,4.80
2019-03-21T08:20:00.413Z,4.10
2019-03-21T08:21:00.354Z,4.70
2019-03-21T08:22:00.279Z,3.50
2019-03-21T08:23:00.212Z,7.40
2019-03-21T08:24:00.146Z,4.10
2019-03-21T08:25:00.081Z,6.70
2019-03-21T08:26:00.027Z,3.10
2019-03-21T08:26:59.964Z,5.00
2019-03-21T08:27:59.877Z,6.10
2019-03-21T08:28:59.814Z,4.80
2019-03-21T08:29:59.746Z,5.70
2019-03-21T08:30:59.679Z,4.50
2019-03-21T08:31:59.609Z,4.30
2019-03-21T08:32:59.538Z,3.40
2019-03-21T08:33:59.475Z,3.90
2019-03-21T08:34:59.406Z,3.50
2019-03-21T08:35:59.392Z,6.70
2019-03-21T08:36:59.294Z,4.80
2019-03-21T08:37:59.207Z,7.10
2019-03-21T08:38:59.148Z,5.80
2019-03-21T08:39:59.076Z,4.70
2019-03-21T08:40:59.009Z,8.40
2019-03-21T08:41:59.011Z,3.60
2019-03-21T08:42:58.882Z,7.40
2019-03-21T08:43:58.813Z,4.30
2019-03-21T08:44:58.752Z,3.40
2019-03-21T08:45:58.696Z,4.40
2019-03-21T08:46:58.611Z,5.00
2019-03-21T08:47:58.547Z,4.90
2019-03-21T08:48:58.476Z,7.00
2019-03-21T08:49:58.409Z,3.30
2019-03-21T08:51:07.658Z,4.90
2019-03-21T08:51:58.280Z,5.90
2019-03-21T08:52:58.214Z,4.40
2019-03-21T08:53:58.145Z,2.70
2019-03-21T08:54:58.076Z,8.10
2019-03-21T08:55:58.021Z,4.20
2019-03-21T08:56:57.947Z,5.20
2019-03-21T08:57:57.879Z,5.60
2019-03-21T08:58:57.818Z,2.80
2019-03-21T08:59:57.747Z,3.90
2019-03-21T09:00:57.684Z,4.30
2019-03-21T09:01:57.614Z,3.20
2019-03-21T09:02:57.549Z,3.50
2019-03-21T09:03:57.493Z,4.70
2019-03-21T09:04:59.645Z,4.40
2019-03-21T09:05:57.351Z,4.20
2019-03-21T09:06:57.287Z,4.00
2019-03-21T09:07:57.218Z,4.90
2019-03-21T09:08:57.155Z,3.10
2019-03-21T09:09:57.088Z,3.40
2019-03-21T09:10:57.022Z,3.90
2019-03-21T09:11:56.957Z,4.00
2019-03-21T09:12:56.894Z,4.60
2019-03-21T09:13:56.847Z,3.50
2019-03-21T09:14:56.758Z,4.50
2019-03-21T09:15:56.694Z,2.90
2019-03-21T09:16:56.627Z,4.10
2019-03-21T09:17:56.565Z,3.70
2019-03-21T09:18:56.495Z,3.70
2019-03-21T09:19:56.431Z,3.50
2019-03-21T09:20:56.364Z,3.40
2019-03-21T09:21:56.308Z,3.50
2019-03-21T09:22:56.235Z,3.10
2019-03-21T09:23:56.162Z,3.20
2019-03-21T09:24:56.101Z,2.40
2019-03-21T09:25:56.036Z,4.50
2019-03-21T09:26:55.969Z,2.60
2019-03-21T09:28:02.531Z,4.10
2019-03-21T09:28:55.837Z,4.00
2019-03-21T09:29:55.770Z,6.20
2019-03-21T09:30:56.627Z,4.20
2019-03-21T09:31:55.641Z,4.00
2019-03-21T09:32:55.576Z,4.70
2019-03-21T09:33:55.510Z,6.70
2019-03-21T09:34:55.445Z,2.80
2019-03-21T09:35:55.377Z,3.00
2019-03-21T09:36:55.315Z,3.90
2019-03-21T09:37:55.248Z,3.00
2019-03-21T09:38:55.184Z,4.40
2019-03-21T09:39:55.117Z,4.60
2019-03-21T09:40:55.053Z,3.10
2019-03-21T09:41:54.985Z,7.10
2019-03-21T09:42:54.946Z,3.10
2019-03-21T09:43:54.856Z,3.60
2019-03-21T09:44:54.791Z,7.60
2019-03-21T09:45:54.721Z,3.00
2019-03-21T09:46:54.658Z,5.60
2019-03-21T09:47:54.593Z,4.70
2019-03-21T09:48:54.529Z,3.40
2019-03-21T09:49:54.465Z,3.10
2019-03-21T09:50:54.398Z,4.10
2019-03-21T09:51:54.333Z,3.10
2019-03-21T09:52:54.268Z,2.80
2019-03-21T09:53:54.204Z,3.40
2019-03-21T09:54:54.147Z,6.90
2019-03-21T09:55:54.071Z,4.30
2019-03-21T09:56:54.008Z,4.00
2019-03-21T09:57:53.942Z,3.50
2019-03-21T09:58:53.882Z,3.30
2019-03-21T09:59:53.813Z,4.90
2019-03-21T10:00:53.748Z,5.20
2019-03-21T10:01:54.549Z,2.50
2019-03-21T10:02:53.620Z,3.70
2019-03-21T10:03:53.550Z,4.60
2019-03-21T10:04:53.490Z,9.00
2019-03-21T10:05:53.422Z,3.90
2019-03-21T10:06:53.357Z,3.80
2019-03-21T10:07:53.306Z,3.50
2019-03-21T10:08:53.234Z,2.80
2019-03-21T10:09:53.161Z,4.20
2019-03-21T10:10:53.097Z,3.90
2019-03-21T10:11:53.035Z,3.80
2019-03-21T10:12:55.436Z,5.20
2019-03-21T10:13:52.909Z,8.00
2019-03-21T10:14:52.847Z,9.00
2019-03-21T10:15:52.774Z,3.60
2019-03-21T10:16:52.710Z,3.00
2019-03-21T10:17:52.645Z,2.60
2019-03-21T10:18:52.580Z,2.60
2019-03-21T10:19:52.515Z,3.20
2019-03-21T10:20:52.450Z,2.90
2019-03-21T10:21:52.390Z,7.30
2019-03-21T10:22:52.323Z,5.50
2019-03-21T10:23:52.257Z,4.40
2019-03-21T10:24:52.195Z,6.20
2019-03-21T10:25:52.130Z,8.20
2019-03-21T10:26:52.062Z,10.30
2019-03-21T10:27:51.993Z,5.90
2019-03-21T10:28:51.934Z,3.10
2019-03-21T10:29:51.869Z,7.40
2019-03-21T10:30:51.805Z,3.20
2019-03-21T10:31:51.740Z,2.90
2019-03-21T10:32:51.677Z,5.60
2019-03-21T10:33:51.611Z,3.20
2019-03-21T10:34:51.546Z,2.80
2019-03-21T10:35:51.482Z,2.90
2019-03-21T10:36:51.417Z,5.40
2019-03-21T10:37:51.354Z,9.70
2019-03-21T10:38:51.288Z,4.00
2019-03-21T10:39:51.221Z,5.40
2019-03-21T10:40:51.162Z,4.70
2019-03-21T10:41:51.096Z,4.70
2019-03-21T10:42:51.036Z,3.50
2019-03-21T10:43:50.967Z,3.20
2019-03-21T10:44:50.904Z,6.80
2019-03-21T10:45:50.839Z,3.50
2019-03-21T10:46:50.776Z,4.70
2019-03-21T10:47:50.710Z,3.60
2019-03-21T10:48:50.647Z,5.90
2019-03-21T10:49:50.582Z,4.30
2019-03-21T10:50:50.560Z,3.60
2019-03-21T10:51:54.921Z,4.40
2019-03-21T10:52:50.393Z,5.40
2019-03-21T10:53:50.331Z,5.20
2019-03-21T10:54:50.260Z,2.70
2019-03-21T10:55:50.203Z,3.00
2019-03-21T10:56:50.135Z,6.10
2019-03-21T10:57:50.071Z,3.00
2019-03-21T10:58:50.006Z,3.60
2019-03-21T10:59:49.940Z,6.50
2019-03-21T11:00:49.880Z,4.50
2019-03-21T11:01:49.816Z,5.90
2019-03-21T11:02:49.752Z,3.20
2019-03-21T11:03:49.689Z,3.50
2019-03-21T11:04:49.624Z,3.90
2019-03-21T11:05:49.566Z,3.30
2019-03-21T11:06:49.494Z,3.30
2019-03-21T11:07:49.434Z,5.20
2019-03-21T11:08:49.369Z,4.70
2019-03-21T11:09:49.305Z,5.20
2019-03-21T11:10:49.242Z,6.10
2019-03-21T11:11:49.172Z,3.60
2019-03-21T11:12:49.117Z,4.30
2019-03-21T11:13:49.052Z,5.80
2019-03-21T11:14:48.984Z,4.70
2019-03-21T11:15:48.922Z,4.80
2019-03-21T11:16:48.857Z,4.10
2019-03-21T11:17:48.794Z,5.40
2019-03-21T11:18:48.730Z,3.50
2019-03-21T11:19:48.666Z,4.00
2019-03-21T11:20:48.605Z,4.50
2019-03-21T11:21:48.539Z,3.00
2019-03-21T11:22:48.478Z,4.40
2019-03-21T11:23:48.411Z,5.50
2019-03-21T11:24:48.348Z,3.40
2019-03-21T11:25:48.285Z,4.80
2019-03-21T11:26:48.249Z,4.00
2019-03-21T11:27:48.157Z,4.60
2019-03-21T11:28:48.093Z,3.90
2019-03-21T11:29:48.029Z,3.20
2019-03-21T11:30:47.967Z,4.20
2019-03-21T11:31:47.901Z,5.30
2019-03-21T11:32:47.839Z,4.70
2019-03-21T11:33:47.799Z,5.10
2019-03-21T11:34:47.710Z,3.70
2019-03-21T11:35:47.649Z,4.50
2019-03-21T11:36:47.585Z,3.20
2019-03-21T11:37:47.520Z,4.50
2019-03-21T11:38:47.457Z,4.40
2019-03-21T11:39:47.392Z,4.20
2019-03-21T11:40:48.512Z,4.60
2019-03-21T11:41:47.276Z,5.60
2019-03-21T11:42:47.214Z,3.60
2019-03-21T11:43:47.148Z,3.80
2019-03-21T11:44:47.073Z,3.60
2019-03-21T11:45:48.016Z,4.70
2019-03-21T11:46:46.947Z,3.00
2019-03-21T11:47:46.881Z,5.10
2019-03-21T11:48:46.828Z,3.00
2019-03-21T11:49:46.765Z,5.30
2019-03-21T11:50:46.701Z,5.50
2019-03-21T11:51:46.657Z,4.20
2019-03-21T11:52:46.563Z,5.20
2019-03-21T11:53:46.501Z,4.20
2019-03-21T11:54:46.435Z,3.00
2019-03-21T11:55:46.373Z,6.60
2019-03-21T11:56:46.320Z,6.80
2019-03-21T11:57:46.244Z,6.10
2019-03-21T11:58:46.180Z,3.00
2019-03-21T11:59:51.498Z,3.00
2019-03-21T12:00:46.052Z,2.80
2019-03-21T12:01:45.987Z,3.80
2019-03-21T12:02:45.927Z,4.80
2019-03-21T12:03:45.865Z,5.20
2019-03-21T12:04:45.797Z,3.20
2019-03-21T12:05:45.731Z,4.50
2019-03-21T12:06:45.670Z,3.50
2019-03-21T12:07:45.604Z,4.30
2019-03-21T12:08:45.541Z,3.20
2019-03-21T12:09:45.474Z,4.20
2019-03-21T12:10:45.413Z,3.50
2019-03-21T12:11:45.348Z,4.60
2019-03-21T12:12:45.281Z,2.90
2019-03-21T12:13:45.242Z,2.90
2019-03-21T12:14:45.159Z,3.20
2019-03-21T12:15:45.098Z,3.80
2019-03-21T12:16:45.037Z,3.90
2019-03-21T12:17:44.967Z,3.60
2019-03-21T12:18:44.901Z,4.70
2019-03-21T12:19:44.836Z,5.80
2019-03-21T12:20:44.775Z,6.30
2019-03-21T12:21:44.710Z,3.60
2019-03-21T12:22:47.186Z,3.60
2019-03-21T12:23:44.582Z,5.50
2019-03-21T12:24:44.518Z,4.20
2019-03-21T12:25:44.477Z,2.50
2019-03-21T12:26:44.413Z,3.90
2019-03-21T12:27:44.330Z,4.70
2019-03-21T12:28:44.266Z,3.00
2019-03-21T12:29:44.199Z,5.90
2019-03-21T12:30:44.135Z,3.30
2019-03-21T12:31:44.071Z,5.90
2019-03-21T12:32:44.010Z,5.20
2019-03-21T12:33:43.945Z,3.20
2019-03-21T12:34:43.882Z,3.30
2019-03-21T12:35:43.817Z,5.20
2019-03-21T12:36:43.752Z,3.10
2019-03-21T12:37:43.690Z,3.60
2019-03-21T12:38:43.624Z,2.60
2019-03-21T12:39:43.563Z,4.10
2019-03-21T12:40:43.497Z,6.70
2019-03-21T12:41:43.435Z,6.50
2019-03-21T12:42:43.405Z,4.30
2019-03-21T12:43:43.306Z,15.20
2019-03-21T12:44:43.244Z,3.30
2019-03-21T12:45:43.182Z,3.70
2019-03-21T12:46:43.118Z,4.70
2019-03-21T12:47:43.065Z,4.00
2019-03-21T12:48:42.991Z,3.00
2019-03-21T12:49:42.925Z,2.70
2019-03-21T12:50:42.861Z,9.70
2019-03-21T12:51:42.797Z,5.10
2019-03-21T12:52:42.734Z,4.80
2019-03-21T12:53:42.684Z,4.10
2019-03-21T12:54:42.641Z,5.10
2019-03-21T12:55:42.544Z,4.10
2019-03-21T12:56:42.480Z,4.00
2019-03-21T12:57:42.416Z,4.60
2019-03-21T12:58:42.352Z,3.30
2019-03-21T12:59:42.289Z,7.10
2019-03-21T13:00:42.226Z,19.10
2019-03-21T13:01:42.168Z,4.30
2019-03-21T13:03:42.033Z,3.60
2019-03-21T13:04:41.972Z,4.70
2019-03-21T13:05:41.913Z,6.50
2019-03-21T13:06:41.843Z,4.90
2019-03-21T13:07:13.253Z,3.70
2019-03-21T13:07:41.781Z,5.50
2019-03-21T13:08:41.715Z,3.10
2019-03-21T13:09:41.654Z,4.90
2019-03-21T13:10:41.595Z,3.20
2019-03-21T13:11:41.528Z,3.40
2019-03-21T13:12:41.462Z,2.80
2019-03-21T13:13:41.397Z,4.70
2019-03-21T13:14:41.332Z,4.20